首页
METAR-TAF:

METAR-TAF

机场 :

库亚巴, 马托格罗索州, 巴西

纬度: 15-39S, 经度: 056-06W, 海拔: 187米

当前天气观测

该预报发布于39分钟前的09:00 UTC
风速5节,风向西南
温度 23°C
湿度 89%
气压 1012 hPa
能见度10公里或以上
少量云层高于900英尺
多云层高于10000英尺

METAR: SBCY 220900Z 23005KT 9999 FEW009 BKN100 23/21 Q1012

时间: 06:39 (09:39 UTC)

预报

该预报发布于7小时和39分钟前的02:00 UTC
预报有效从22日的 06点(UTC)到 23日的 06点(UTC)
风速5节,风向西转西北
能見度: 8000
散云层高于2300英尺
成为
从 22日的 07点(UTC)到 22日的 09点(UTC)
能見度: 7000
多云层高于2000英尺
少量云层高于3000英尺, 塔状积云.
短暂存在
从 22日的 10点(UTC)到 22日的 16点(UTC)
能見度: 6000
多云层高于1500英尺
少量云层高于3000英尺, 积雨云.
雷暴, 雨
成为
从 22日的 18点(UTC)到 22日的 21点(UTC)
风速7节,风向
能見度: 8000
散云层高于2300英尺
成为
从 23日的 01点(UTC)到 23日的 04点(UTC)
风速5节,风向西转西北
少量云层高于2300英尺

TAF: SBCY 220200Z 2206/2306 30005KT 8000 SCT023 TN23/2210Z TX30/2217Z BECMG 2207/2209 7000 BKN020 FEW030TCU TEMPO 2210/2216 6000 TSRA BKN015 FEW030CB BECMG 2218/2221 18007KT 8000 SCT023 BECMG 2301/2304 30005KT FEW023 RMK PHC

超过4000个机场的气象观测和天气预报(METAR&TAF报告)。

可查询的气象台以黄色和红色小点在地图上表示。

将鼠标移到小点上方,可查看气象台名称。

然后点击查看天气观测和预报。

如需切换地图:点击带黑十字的绿色按钮放大地图;点击带横线的绿色按钮缩小地图;或者点击绿色箭头查看邻近地区的地图。


METAR-TAF: